Time;durP1;ratioP1;P1;durP2;ratioP2;P2;SDS_P1;SDS_P2;PMS_P1;PMS_P2;Temp;Humidity;BMP_temperature;BMP_pressure;BME280_temperature;BME280_humidity;BME280_pressure;Samples;Min_cycle;Max_cycle;Signal;HPM_P1;HPM_P2
2023/01/27 00:00:19;;;;;;;42.17;20.42;;;0.30;99.90;;;;;;2042995;28;20059;-76
2023/01/27 00:01:20;;;;;;;39.38;20.27;;;0.30;99.90;;;;;;2043226;28;20042;-74
2023/01/27 00:02:20;;;;;;;42.95;20.88;;;0.30;99.90;;;;;;2048371;28;20401;-76
2023/01/27 00:03:21;;;;;;;43.45;21.50;;;0.30;99.90;;;;;;2043434;28;20446;-77
2023/01/27 00:04:22;;;;;;;45.25;22.25;;;0.30;99.90;;;;;;2034305;29;20028;-75
2023/01/27 00:05:23;;;;;;;44.33;21.38;;;0.30;99.90;;;;;;2034557;29;20136;-75
2023/01/27 00:06:23;;;;;;;41.42;20.88;;;0.30;99.90;;;;;;2047767;28;20173;-77
2023/01/27 00:07:24;;;;;;;44.92;21.10;;;0.30;99.90;;;;;;2045165;28;20042;-76
2023/01/27 00:08:24;;;;;;;43.40;20.70;;;0.30;99.90;;;;;;2026440;29;20534;-75
2023/01/27 00:09:25;;;;;;;40.97;20.25;;;0.30;99.90;;;;;;2026517;29;20035;-76
2023/01/27 00:10:26;;;;;;;40.08;19.67;;;0.20;99.90;;;;;;2042859;28;20490;-75
2023/01/27 00:14:06;;;;;;;42.03;21.05;;;0.30;99.90;;;;;;2043566;28;20031;-76
2023/01/27 00:15:08;;;;;;;43.55;21.50;;;0.30;99.90;;;;;;2041343;28;20040;-76
2023/01/27 00:16:09;;;;;;;45.90;22.38;;;0.30;99.90;;;;;;2041619;28;20032;-76
2023/01/27 00:17:09;;;;;;;45.72;21.52;;;0.30;99.90;;;;;;2044121;28;20034;-76
2023/01/27 00:18:10;;;;;;;48.10;22.67;;;0.30;99.90;;;;;;2045799;28;20090;-75
2023/01/27 00:19:22;;;;;;;46.92;23.05;;;0.30;99.90;;;;;;2043241;28;20528;-76
2023/01/27 00:24:36;;;;;;;39.83;19.27;;;0.30;99.90;;;;;;2034507;29;20048;-77
2023/01/27 00:25:37;;;;;;;41.33;19.67;;;0.30;99.90;;;;;;2036027;29;20051;-76
2023/01/27 00:26:37;;;;;;;41.55;20.33;;;0.30;99.90;;;;;;2042842;29;20031;-76
2023/01/27 00:27:38;;;;;;;44.58;21.38;;;0.30;99.90;;;;;;2034301;29;20039;-76
2023/01/27 00:28:40;;;;;;;41.90;20.83;;;0.30;99.90;;;;;;2036189;29;20043;-76
2023/01/27 00:29:41;;;;;;;42.03;20.52;;;0.30;99.90;;;;;;2044601;29;20292;-76
2023/01/27 00:30:42;;;;;;;39.65;20.00;;;0.20;99.90;;;;;;2035321;29;20589;-75
2023/01/27 00:34:22;;;;;;;41.22;19.63;;;0.20;99.90;;;;;;2036921;29;20039;-77
2023/01/27 00:35:24;;;;;;;42.30;20.77;;;0.20;99.90;;;;;;2036218;29;20515;-77
2023/01/27 00:36:25;;;;;;;44.92;21.10;;;0.20;99.90;;;;;;2034178;29;20027;-77
2023/01/27 00:37:25;;;;;;;43.28;21.17;;;0.20;99.90;;;;;;2041699;29;20067;-77
2023/01/27 00:38:30;;;;;;;44.28;21.40;;;0.20;99.90;;;;;;2034098;29;20031;-76
2023/01/27 00:39:31;;;;;;;42.47;20.38;;;0.20;99.90;;;;;;2036722;29;20066;-77
2023/01/27 00:40:32;;;;;;;43.30;21.48;;;0.20;99.90;;;;;;2039426;28;20637;-77
2023/01/27 00:41:33;;;;;;;39.67;20.15;;;0.20;99.90;;;;;;2042381;29;20614;-75
2023/01/27 00:42:34;;;;;;;43.15;20.98;;;0.20;99.90;;;;;;2042858;28;20035;-76
2023/01/27 00:43:34;;;;;;;46.28;21.85;;;0.20;99.90;;;;;;2044798;28;20028;-75
2023/01/27 00:44:35;;;;;;;41.45;20.90;;;0.20;99.90;;;;;;2032300;29;20114;-77
2023/01/27 00:45:48;;;;;;;42.22;20.83;;;0.20;99.90;;;;;;2024561;29;20478;-76
2023/01/27 00:46:49;;;;;;;42.05;20.85;;;0.20;99.90;;;;;;2035527;29;20059;-77
2023/01/27 00:47:51;;;;;;;39.90;19.95;;;0.20;99.90;;;;;;2033953;29;20452;-76
2023/01/27 00:48:52;;;;;;;40.33;20.33;;;0.20;99.90;;;;;;2034225;29;20043;-76
2023/01/27 00:49:52;;;;;;;43.17;21.38;;;0.20;99.90;;;;;;2044571;29;20039;-78
2023/01/27 00:50:53;;;;;;;43.40;20.90;;;0.20;99.90;;;;;;2043001;28;20034;-76
2023/01/27 00:51:54;;;;;;;42.00;20.50;;;0.20;99.90;;;;;;2033714;29;20515;-77
2023/01/27 00:52:56;;;;;;;42.50;19.88;;;0.20;99.90;;;;;;2034248;29;20031;-75
2023/01/27 00:53:58;;;;;;;39.22;19.13;;;0.30;99.90;;;;;;2036407;29;20538;-77
2023/01/27 00:54:58;;;;;;;38.42;19.35;;;0.20;99.90;;;;;;2042117;29;20057;-76
2023/01/27 00:55:59;;;;;;;41.20;20.17;;;0.30;99.90;;;;;;2041926;29;20042;-76
2023/01/27 00:57:00;;;;;;;38.05;19.83;;;0.30;99.90;;;;;;2042217;29;20035;-76
2023/01/27 00:58:00;;;;;;;40.42;20.60;;;0.20;99.90;;;;;;2042341;29;20019;-75
2023/01/27 00:59:02;;;;;;;43.88;20.38;;;0.20;99.90;;;;;;2042248;29;20602;-76
2023/01/27 01:00:05;;;;;;;40.33;19.80;;;0.20;99.90;;;;;;2042310;29;20027;-76
2023/01/27 01:01:08;;;;;;;38.65;18.92;;;0.20;99.90;;;;;;2044389;28;20119;-76
2023/01/27 01:02:09;;;;;;;41.10;20.02;;;0.20;99.90;;;;;;2043799;29;20059;-77
2023/01/27 01:03:10;;;;;;;42.83;20.30;;;0.20;99.90;;;;;;2041327;29;20439;-78
2023/01/27 01:04:10;;;;;;;38.47;19.20;;;0.10;99.90;;;;;;2042420;28;20050;-77
2023/01/27 01:05:11;;;;;;;38.05;19.52;;;0.10;99.90;;;;;;2033425;29;20028;-77
2023/01/27 01:06:14;;;;;;;34.63;18.60;;;0.10;99.90;;;;;;2020097;29;20047;-76
2023/01/27 01:07:14;;;;;;;42.63;21.55;;;0.20;99.90;;;;;;2026636;29;20385;-78
2023/01/27 01:08:15;;;;;;;42.70;21.08;;;0.20;99.90;;;;;;2041668;29;20502;-78
2023/01/27 01:09:16;;;;;;;39.80;20.35;;;0.20;99.90;;;;;;2041658;28;20530;-76
2023/01/27 01:10:16;;;;;;;38.67;19.40;;;0.20;99.90;;;;;;2043321;28;20019;-77
2023/01/27 01:11:20;;;;;;;38.00;18.83;;;0.30;99.90;;;;;;2039341;28;20122;-75
2023/01/27 01:12:21;;;;;;;36.80;19.00;;;0.30;99.90;;;;;;2042906;28;20097;-76
2023/01/27 01:13:26;;;;;;;37.75;19.27;;;0.30;99.90;;;;;;2042456;29;20402;-78
2023/01/27 01:14:27;;;;;;;36.70;18.45;;;0.30;99.90;;;;;;2033164;29;20032;-76
2023/01/27 01:15:27;;;;;;;37.95;18.80;;;0.30;99.90;;;;;;2032008;29;20459;-76
2023/01/27 01:16:28;;;;;;;37.58;19.00;;;0.30;99.90;;;;;;2041745;29;20031;-76
2023/01/27 01:17:29;;;;;;;36.03;17.92;;;0.30;99.90;;;;;;2042434;29;20063;-77
2023/01/27 01:18:31;;;;;;;39.63;18.98;;;0.30;99.90;;;;;;2042436;28;20455;-77
2023/01/27 01:19:32;;;;;;;40.15;20.05;;;0.30;99.90;;;;;;2042542;29;20027;-76
2023/01/27 01:20:45;;;;;;;40.85;20.23;;;0.30;99.90;;;;;;2042445;28;20509;-78
2023/01/27 01:21:46;;;;;;;43.47;20.77;;;0.20;99.90;;;;;;2035929;29;20487;-76
2023/01/27 01:22:47;;;;;;;41.08;20.35;;;0.30;99.90;;;;;;2037086;29;20033;-76
2023/01/27 01:23:47;;;;;;;40.83;20.05;;;0.30;99.90;;;;;;2035544;29;20038;-75
2023/01/27 01:24:48;;;;;;;39.58;19.58;;;0.30;99.90;;;;;;2026198;29;20805;-77
2023/01/27 01:25:56;;;;;;;36.65;18.70;;;0.30;99.90;;;;;;2034094;29;20031;-76
2023/01/27 01:26:56;;;;;;;38.28;19.13;;;0.30;99.90;;;;;;2041936;28;20031;-78
2023/01/27 01:27:58;;;;;;;37.20;18.83;;;0.30;99.90;;;;;;2044108;28;20027;-77
2023/01/27 01:28:58;;;;;;;37.28;18.65;;;0.30;99.90;;;;;;2043978;28;20483;-78
2023/01/27 01:30:01;;;;;;;32.15;17.42;;;0.30;99.90;;;;;;2034657;29;20038;-77
2023/01/27 01:31:12;;;;;;;38.80;19.15;;;0.30;99.90;;;;;;2033051;29;20376;-77
2023/01/27 01:32:12;;;;;;;36.78;18.50;;;0.30;99.90;;;;;;2033614;29;20130;-75
2023/01/27 01:33:14;;;;;;;34.90;17.42;;;0.30;99.90;;;;;;2029345;29;20039;-77
2023/01/27 01:34:14;;;;;;;36.40;18.10;;;0.30;99.90;;;;;;2039734;29;20613;-77
2023/01/27 01:35:18;;;;;;;36.72;18.52;;;0.30;99.90;;;;;;2041741;28;20157;-76
2023/01/27 01:36:20;;;;;;;35.33;17.88;;;0.30;99.90;;;;;;2041805;28;20027;-77
2023/01/27 01:37:21;;;;;;;40.38;19.40;;;0.30;99.90;;;;;;2042054;28;20457;-77
2023/01/27 01:38:21;;;;;;;37.15;19.38;;;0.20;99.90;;;;;;2042139;28;20031;-75
2023/01/27 01:39:22;;;;;;;36.15;18.88;;;0.20;99.90;;;;;;2043644;29;20060;-77
2023/01/27 01:40:24;;;;;;;38.03;19.55;;;0.20;99.90;;;;;;2043553;28;20477;-75
2023/01/27 01:41:25;;;;;;;37.20;18.95;;;0.20;99.90;;;;;;2047321;28;20045;-76
2023/01/27 01:42:48;;;;;;;35.60;18.75;;;0.20;99.90;;;;;;2043051;28;20027;-75
2023/01/27 01:43:51;;;;;;;36.97;18.90;;;0.20;99.90;;;;;;2041879;28;20229;-76
2023/01/27 01:45:30;;;;;;;36.58;19.05;;;0.20;99.90;;;;;;2030497;29;20584;-74
2023/01/27 01:46:30;;;;;;;35.30;18.42;;;0.20;99.90;;;;;;2028827;29;20431;-75
2023/01/27 01:47:31;;;;;;;39.10;19.75;;;0.20;99.90;;;;;;2033724;29;20027;-75
2023/01/27 01:48:35;;;;;;;39.10;19.50;;;0.20;99.90;;;;;;2043167;28;20594;-76
2023/01/27 01:49:39;;;;;;;36.80;18.55;;;0.20;99.90;;;;;;2033981;29;20063;-77
2023/01/27 01:50:44;;;;;;;36.90;19.13;;;0.20;99.90;;;;;;2036129;28;20059;-77
2023/01/27 01:51:53;;;;;;;35.72;18.25;;;0.20;99.90;;;;;;2044138;28;20636;-76
2023/01/27 01:52:54;;;;;;;34.85;17.95;;;0.30;99.90;;;;;;2042607;28;20035;-76
2023/01/27 01:54:02;;;;;;;36.13;18.65;;;0.20;99.90;;;;;;2042567;28;20430;-76
2023/01/27 01:55:03;;;;;;;34.08;18.02;;;0.20;99.90;;;;;;2037501;29;20039;-75
2023/01/27 01:56:16;;;;;;;33.65;17.58;;;0.20;99.90;;;;;;2045606;28;20094;-76
2023/01/27 01:57:24;;;;;;;36.88;18.02;;;0.30;99.90;;;;;;2041502;29;20027;-76
2023/01/27 01:58:26;;;;;;;31.52;17.58;;;0.30;99.90;;;;;;2045776;28;20034;-76
2023/01/27 01:59:31;;;;;;;38.15;19.45;;;0.30;99.90;;;;;;2039435;29;20049;-76
2023/01/27 02:00:32;;;;;;;39.83;19.88;;;0.30;99.90;;;;;;2041762;28;20057;-76
2023/01/27 02:01:32;;;;;;;37.28;19.65;;;0.30;99.90;;;;;;2040652;29;20626;-76
2023/01/27 02:02:34;;;;;;;36.58;19.40;;;0.30;99.90;;;;;;2042983;28;20039;-75
2023/01/27 02:03:39;;;;;;;34.80;18.48;;;0.30;99.90;;;;;;2042380;29;20062;-75
2023/01/27 02:04:48;;;;;;;35.45;18.98;;;0.30;99.90;;;;;;2042196;29;20055;-77
2023/01/27 02:05:53;;;;;;;36.05;19.10;;;0.30;99.90;;;;;;2042270;29;20040;-75
2023/01/27 02:07:26;;;;;;;39.65;19.40;;;0.30;99.90;;;;;;2044245;29;20031;-75
2023/01/27 02:08:32;;;;;;;37.72;18.58;;;0.30;99.90;;;;;;2043999;29;20414;-75
2023/01/27 02:09:33;;;;;;;34.83;18.15;;;0.30;99.90;;;;;;2033794;29;20431;-75
2023/01/27 02:10:34;;;;;;;37.45;18.55;;;0.30;99.90;;;;;;2032363;29;20039;-75
2023/01/27 02:11:35;;;;;;;34.38;18.33;;;0.30;99.90;;;;;;2038797;28;20368;-75
2023/01/27 02:12:35;;;;;;;32.88;18.17;;;0.30;99.90;;;;;;2044425;29;20151;-75
2023/01/27 02:13:38;;;;;;;32.22;17.75;;;0.30;99.90;;;;;;2042593;28;20546;-75
2023/01/27 02:14:40;;;;;;;36.75;19.02;;;0.30;99.90;;;;;;2033748;29;20032;-75
2023/01/27 02:15:40;;;;;;;36.88;18.88;;;0.30;99.90;;;;;;2026037;29;20419;-75
2023/01/27 02:16:41;;;;;;;34.28;18.73;;;0.30;99.90;;;;;;2035222;29;20020;-76
2023/01/27 02:17:43;;;;;;;35.78;18.92;;;0.40;99.90;;;;;;2041938;28;20034;-75
2023/01/27 02:18:44;;;;;;;36.30;19.25;;;0.40;99.90;;;;;;2042287;29;20036;-75
2023/01/27 02:19:47;;;;;;;34.97;18.65;;;0.40;99.90;;;;;;2042205;29;20118;-76
2023/01/27 02:20:50;;;;;;;34.03;17.98;;;0.30;99.90;;;;;;2034098;29;20024;-76
2023/01/27 02:21:55;;;;;;;31.67;17.75;;;0.40;99.90;;;;;;2034180;28;20031;-75
2023/01/27 02:23:18;;;;;;;33.47;17.70;;;0.40;99.90;;;;;;2031931;29;20032;-75
2023/01/27 02:24:18;;;;;;;35.25;17.63;;;0.40;99.90;;;;;;2034463;29;20042;-75
2023/01/27 02:25:28;;;;;;;34.20;17.77;;;0.40;99.90;;;;;;2044488;29;20118;-75
2023/01/27 02:26:32;;;;;;;32.65;17.15;;;0.40;99.90;;;;;;2034790;29;21409;-74
2023/01/27 02:27:33;;;;;;;34.03;18.55;;;0.40;99.90;;;;;;2031512;29;20099;-77
2023/01/27 02:28:34;;;;;;;36.30;19.13;;;0.40;99.90;;;;;;2044364;29;20031;-74
2023/01/27 02:29:34;;;;;;;32.38;17.77;;;0.40;99.90;;;;;;2041579;28;20030;-77
2023/01/27 02:30:35;;;;;;;34.47;17.80;;;0.40;99.90;;;;;;2041585;28;20039;-75
2023/01/27 02:31:35;;;;;;;37.30;19.10;;;0.40;99.90;;;;;;2041740;29;20037;-76
2023/01/27 02:32:36;;;;;;;37.55;19.30;;;0.40;99.90;;;;;;2035536;29;20039;-75
2023/01/27 02:33:36;;;;;;;37.30;19.00;;;0.40;99.90;;;;;;2034487;29;20048;-79
2023/01/27 02:34:37;;;;;;;36.85;19.08;;;0.40;99.90;;;;;;2041919;28;20031;-76
2023/01/27 02:36:04;;;;;;;36.08;18.48;;;0.40;99.90;;;;;;2041960;29;20826;-76
2023/01/27 02:37:07;;;;;;;35.92;18.27;;;0.40;99.90;;;;;;2032929;29;20047;-75
2023/01/27 02:38:10;;;;;;;38.92;19.60;;;0.40;99.90;;;;;;2034069;29;20063;-75
2023/01/27 02:39:13;;;;;;;39.00;19.52;;;0.40;99.90;;;;;;2043636;28;20023;-74
2023/01/27 02:40:15;;;;;;;39.30;19.27;;;0.40;99.90;;;;;;2041807;28;20055;-77
2023/01/27 02:41:32;;;;;;;35.72;18.90;;;0.30;99.90;;;;;;2046432;28;20030;-76
2023/01/27 02:42:33;;;;;;;40.35;19.40;;;0.30;99.90;;;;;;2033157;29;20172;-76
2023/01/27 02:43:34;;;;;;;43.28;20.63;;;0.30;99.90;;;;;;2030795;29;20080;-76
2023/01/27 02:44:34;;;;;;;44.53;20.95;;;0.30;99.90;;;;;;2040490;28;20019;-74
2023/01/27 02:45:36;;;;;;;42.78;20.30;;;0.20;99.90;;;;;;2040642;28;20688;-75
2023/01/27 02:46:37;;;;;;;43.20;20.63;;;0.20;99.90;;;;;;2035500;29;20051;-76
2023/01/27 02:47:38;;;;;;;47.20;21.67;;;0.20;99.90;;;;;;2027494;29;20028;-77
2023/01/27 02:48:38;;;;;;;44.75;20.00;;;0.20;99.90;;;;;;2027454;29;20055;-77
2023/01/27 02:49:39;;;;;;;43.13;20.05;;;0.30;99.90;;;;;;2037251;29;20036;-77
2023/01/27 02:50:42;;;;;;;41.42;19.50;;;0.30;99.90;;;;;;2043365;28;20571;-76
2023/01/27 02:51:42;;;;;;;39.17;19.90;;;0.30;99.90;;;;;;2043050;28;20644;-79
2023/01/27 02:52:43;;;;;;;40.63;20.08;;;0.30;99.90;;;;;;2035460;29;20189;-77
2023/01/27 02:53:45;;;;;;;43.83;20.85;;;0.30;99.90;;;;;;2029613;29;20024;-78
2023/01/27 02:54:46;;;;;;;43.47;21.00;;;0.30;99.90;;;;;;2027502;29;20028;-75
2023/01/27 02:55:47;;;;;;;45.20;21.02;;;0.30;99.90;;;;;;2035925;29;20138;-77
2023/01/27 02:56:47;;;;;;;44.72;21.48;;;0.30;99.90;;;;;;2043720;28;20042;-76
2023/01/27 02:57:50;;;;;;;47.28;21.45;;;0.30;99.90;;;;;;2044245;29;20398;-75
2023/01/27 02:59:11;;;;;;;50.75;22.55;;;0.30;99.90;;;;;;2043511;29;20533;-78
2023/01/27 03:00:15;;;;;;;46.67;21.65;;;0.20;99.90;;;;;;2043273;29;20027;-77
2023/01/27 03:01:16;;;;;;;46.45;20.88;;;0.20;99.90;;;;;;2045691;29;20031;-76
2023/01/27 03:02:21;;;;;;;48.38;22.00;;;0.20;99.90;;;;;;2043542;28;20098;-75
2023/01/27 03:03:23;;;;;;;47.92;21.08;;;0.20;99.90;;;;;;2043321;29;20154;-76
2023/01/27 03:04:24;;;;;;;47.25;22.30;;;0.20;99.90;;;;;;2043721;28;20135;-75
2023/01/27 03:05:24;;;;;;;45.25;21.73;;;0.20;99.90;;;;;;2035269;29;20043;-75
2023/01/27 03:06:25;;;;;;;46.65;21.95;;;0.20;99.90;;;;;;2037424;29;20550;-75
2023/01/27 03:07:26;;;;;;;41.80;20.63;;;0.20;99.90;;;;;;2042992;29;20114;-76
2023/01/27 03:08:29;;;;;;;45.65;21.48;;;0.20;99.90;;;;;;2043301;29;20119;-76
2023/01/27 03:09:30;;;;;;;44.28;21.73;;;0.20;99.90;;;;;;2043492;29;20030;-77
2023/01/27 03:10:30;;;;;;;47.03;21.52;;;0.20;99.90;;;;;;2043159;29;20037;-76
2023/01/27 03:12:52;;;;;;;51.08;23.35;;;0.20;99.90;;;;;;2034944;29;20547;-76
2023/01/27 03:13:56;;;;;;;48.53;22.67;;;0.20;99.90;;;;;;2028989;29;20099;-76
2023/01/27 03:18:56;;;;;;;;;;;0.10;99.90;;;;;;2043658;29;20034;-75
2023/01/27 03:19:57;;;;;;;50.33;21.35;;;0.20;99.90;;;;;;2034725;29;19993;-76
2023/01/27 03:21:02;;;;;;;50.65;21.58;;;0.20;99.90;;;;;;2036426;29;20032;-75
2023/01/27 03:22:05;;;;;;;48.42;21.83;;;0.10;99.90;;;;;;2044830;29;20035;-75
2023/01/27 03:23:09;;;;;;;49.00;21.67;;;0.10;99.90;;;;;;2036768;29;20558;-75
2023/01/27 03:24:10;;;;;;;47.95;21.63;;;0.10;99.90;;;;;;2035149;29;20694;-76
2023/01/27 03:25:12;;;;;;;48.70;22.23;;;0.10;99.90;;;;;;2034645;29;20043;-75
2023/01/27 03:26:12;;;;;;;49.03;21.23;;;0.10;99.90;;;;;;2035234;29;20503;-75
2023/01/27 03:27:18;;;;;;;46.40;21.42;;;0.10;99.90;;;;;;2034845;29;20454;-75
2023/01/27 03:29:53;;;;;;;48.50;21.25;;;0.10;99.90;;;;;;2038985;29;20039;-76
2023/01/27 03:30:14;;;;;;;47.65;20.70;;;0.10;99.90;;;;;;2034595;29;20095;-75
2023/01/27 03:31:26;;;;;;;51.78;21.55;;;0.10;99.90;;;;;;2034001;29;20032;-76
2023/01/27 03:32:34;;;;;;;48.13;20.45;;;0.00;99.90;;;;;;2042819;29;20060;-75
2023/01/27 03:34:03;;;;;;;46.58;18.50;;;0.10;99.90;;;;;;2040677;29;20409;-75
2023/01/27 03:35:22;;;;;;;47.47;19.50;;;0.00;99.90;;;;;;2034646;29;20042;-75
2023/01/27 03:47:06;;;;;;;48.42;20.10;;;0.00;99.90;;;;;;2043170;29;20135;-75
2023/01/27 03:48:06;;;;;;;52.90;22.55;;;0.00;99.90;;;;;;2036390;29;20048;-74
2023/01/27 03:49:07;;;;;;;52.38;22.30;;;0.00;99.90;;;;;;2034829;29;20389;-76
2023/01/27 03:50:10;;;;;;;51.75;21.23;;;0.00;99.90;;;;;;2043027;28;20467;-77
2023/01/27 03:51:10;;;;;;;49.75;21.48;;;0.00;99.90;;;;;;2043058;29;20036;-76
2023/01/27 03:52:11;;;;;;;52.05;21.92;;;0.10;99.90;;;;;;2045023;29;20142;-77
2023/01/27 03:53:12;;;;;;;48.30;20.70;;;0.00;99.90;;;;;;2042961;29;20097;-70
2023/01/27 03:54:12;;;;;;;49.35;21.00;;;0.00;99.90;;;;;;2042897;28;20015;-69
2023/01/27 03:55:13;;;;;;;50.38;21.15;;;0.10;99.90;;;;;;2043228;29;20031;-70
2023/01/27 03:56:14;;;;;;;50.33;22.05;;;0.00;99.90;;;;;;2042925;29;20031;-70
2023/01/27 03:57:15;;;;;;;53.83;22.75;;;0.10;99.90;;;;;;2043311;28;20046;-69
2023/01/27 03:58:25;;;;;;;50.85;20.92;;;0.00;99.90;;;;;;2044923;29;20391;-69
2023/01/27 03:59:26;;;;;;;56.28;21.60;;;0.10;99.90;;;;;;2032802;29;20088;-69
2023/01/27 04:00:28;;;;;;;49.13;19.98;;;0.10;99.90;;;;;;2032849;29;20058;-70
2023/01/27 04:01:30;;;;;;;49.83;20.95;;;0.00;99.90;;;;;;2040849;29;20077;-69
2023/01/27 04:07:51;;;;;;;50.03;19.20;;;0.00;99.90;;;;;;2033857;29;20575;-71
2023/01/27 04:08:52;;;;;;;51.92;20.75;;;0.10;99.90;;;;;;2034105;29;20071;-71
2023/01/27 04:09:53;;;;;;;52.38;21.27;;;0.00;99.90;;;;;;2044187;28;20042;-73
2023/01/27 04:11:53;;;;;;;45.55;18.98;;;0.00;99.90;;;;;;2042874;28;20271;-70
2023/01/27 04:12:20;;;;;;;48.78;19.15;;;0.00;99.90;;;;;;2040160;29;20043;-71
2023/01/27 04:13:22;;;;;;;50.47;19.98;;;0.00;99.90;;;;;;2034505;29;20028;-70
2023/01/27 04:14:42;;;;;;;47.40;19.00;;;0.00;99.90;;;;;;2036308;29;20115;-70
2023/01/27 04:15:43;;;;;;;43.90;18.60;;;0.00;99.90;;;;;;2043194;28;20106;-71
2023/01/27 04:16:44;;;;;;;48.30;19.00;;;0.00;99.90;;;;;;2041289;28;20817;-70
2023/01/27 04:17:44;;;;;;;46.30;18.40;;;0.00;99.90;;;;;;2044186;28;20056;-70
2023/01/27 04:18:45;;;;;;;44.10;18.73;;;0.00;99.90;;;;;;2042937;28;20494;-70
2023/01/27 04:19:46;;;;;;;46.85;18.20;;;0.00;99.90;;;;;;2043009;29;20510;-69
2023/01/27 04:20:46;;;;;;;48.35;17.73;;;0.00;99.90;;;;;;2034386;29;20096;-69
2023/01/27 04:21:47;;;;;;;45.03;18.63;;;0.00;99.90;;;;;;2036483;29;20031;-70
2023/01/27 04:22:48;;;;;;;48.97;19.45;;;0.10;99.90;;;;;;2042988;29;20139;-69
2023/01/27 04:23:49;;;;;;;47.30;19.05;;;0.10;99.90;;;;;;2043188;29;20043;-70
2023/01/27 04:24:49;;;;;;;43.80;17.85;;;0.00;99.90;;;;;;2042909;29;20027;-69
2023/01/27 04:25:53;;;;;;;46.25;18.85;;;0.00;99.90;;;;;;2036290;29;20036;-70
2023/01/27 04:26:56;;;;;;;43.53;18.08;;;0.10;99.90;;;;;;2036983;29;20130;-70
2023/01/27 04:27:57;;;;;;;49.83;18.83;;;0.10;99.90;;;;;;2041947;29;20664;-70
2023/01/27 04:28:59;;;;;;;45.08;18.73;;;0.10;99.90;;;;;;2042064;29;20028;-70
2023/01/27 04:30:00;;;;;;;44.17;18.38;;;0.10;99.90;;;;;;2034112;29;20043;-70
2023/01/27 04:31:00;;;;;;;43.78;18.70;;;0.10;99.90;;;;;;2038414;29;20020;-72
2023/01/27 04:32:08;;;;;;;45.38;19.02;;;0.10;99.90;;;;;;2047498;28;20027;-70
2023/01/27 04:33:14;;;;;;;42.92;17.40;;;0.10;99.90;;;;;;2040470;29;20055;-71
2023/01/27 04:34:14;;;;;;;46.17;19.15;;;0.10;99.90;;;;;;2040561;29;20019;-71
2023/01/27 04:35:15;;;;;;;43.00;17.98;;;0.00;99.90;;;;;;2034504;29;20589;-69
2023/01/27 04:36:16;;;;;;;46.90;19.40;;;0.00;99.90;;;;;;2035363;29;20028;-69
2023/01/27 04:37:17;;;;;;;47.53;18.20;;;0.00;99.90;;;;;;2039973;28;20051;-69
2023/01/27 04:38:17;;;;;;;44.25;18.35;;;0.00;99.90;;;;;;2042857;28;20293;-69
2023/01/27 04:39:18;;;;;;;45.10;18.00;;;0.00;99.90;;;;;;2045062;29;20051;-71
2023/01/27 04:40:37;;;;;;;43.75;18.10;;;0.10;99.90;;;;;;2043380;28;20055;-70
2023/01/27 04:41:38;;;;;;;40.33;16.83;;;0.00;99.90;;;;;;2044957;29;20140;-70
2023/01/27 04:42:48;;;;;;;43.13;17.95;;;0.00;99.90;;;;;;2042183;28;20070;-70
2023/01/27 04:43:51;;;;;;;41.70;17.48;;;0.10;99.90;;;;;;2033176;29;20063;-71
2023/01/27 04:44:52;;;;;;;44.55;17.63;;;0.00;99.90;;;;;;2031193;29;20701;-71
2023/01/27 04:45:52;;;;;;;42.78;16.73;;;0.00;99.90;;;;;;2042787;29;20035;-70
2023/01/27 04:46:54;;;;;;;41.95;16.83;;;0.00;99.90;;;;;;2044550;28;20041;-70
2023/01/27 04:47:54;;;;;;;44.72;18.42;;;0.10;99.90;;;;;;2034328;29;20031;-70
2023/01/27 04:48:55;;;;;;;44.20;17.90;;;0.00;99.90;;;;;;2034094;29;20035;-70
2023/01/27 04:49:55;;;;;;;49.20;18.52;;;0.00;99.90;;;;;;2043092;28;20118;-70
2023/01/27 04:50:56;;;;;;;44.42;18.05;;;0.00;99.90;;;;;;2048277;28;20117;-70
2023/01/27 04:51:56;;;;;;;50.60;18.90;;;-0.10;99.90;;;;;;2042832;29;20402;-70
2023/01/27 04:52:57;;;;;;;47.53;18.33;;;-0.10;99.90;;;;;;2039604;28;20031;-70
2023/01/27 04:53:58;;;;;;;43.42;17.52;;;-0.10;99.90;;;;;;2040884;28;20546;-69
2023/01/27 04:54:59;;;;;;;49.67;18.35;;;-0.10;99.90;;;;;;2034150;29;20039;-70
2023/01/27 04:56:05;;;;;;;43.53;17.48;;;0.00;99.90;;;;;;2034366;29;20048;-70
2023/01/27 04:57:05;;;;;;;43.50;18.25;;;0.00;99.90;;;;;;2044798;29;20038;-69
2023/01/27 04:58:06;;;;;;;46.50;18.05;;;0.00;99.90;;;;;;2042846;28;20110;-70
2023/01/27 04:59:11;;;;;;;50.33;19.40;;;0.00;99.90;;;;;;2038345;29;20622;-69
2023/01/27 05:00:15;;;;;;;47.40;18.70;;;-0.10;99.90;;;;;;2026860;29;20476;-70
2023/01/27 05:01:16;;;;;;;50.58;19.50;;;-0.10;99.90;;;;;;2034180;29;20035;-70
2023/01/27 05:02:17;;;;;;;51.92;19.85;;;-0.10;99.90;;;;;;2042472;29;20387;-70
2023/01/27 05:03:17;;;;;;;52.95;19.92;;;-0.10;99.90;;;;;;2044968;29;20143;-71
2023/01/27 05:04:18;;;;;;;50.20;19.67;;;-0.10;99.90;;;;;;2044509;28;20039;-70
2023/01/27 05:05:18;;;;;;;48.33;19.25;;;-0.10;99.90;;;;;;2046164;28;20050;-71
2023/01/27 05:06:20;;;;;;;51.13;19.40;;;-0.10;99.90;;;;;;2044476;29;20083;-69
2023/01/27 05:07:20;;;;;;;46.65;18.73;;;-0.10;99.90;;;;;;2046398;28;20027;-71
2023/01/27 05:08:21;;;;;;;51.28;19.02;;;-0.10;99.90;;;;;;2042808;29;20788;-70
2023/01/27 05:09:21;;;;;;;53.33;18.92;;;-0.10;99.90;;;;;;2042649;28;20110;-71
2023/01/27 05:10:22;;;;;;;47.97;18.90;;;0.00;99.90;;;;;;2042493;29;20031;-69
2023/01/27 05:11:23;;;;;;;50.97;19.55;;;0.00;99.90;;;;;;2044381;28;20050;-70
2023/01/27 05:12:24;;;;;;;49.40;19.13;;;-0.10;99.90;;;;;;2035580;29;20418;-69
2023/01/27 05:13:24;;;;;;;52.63;20.52;;;-0.10;99.90;;;;;;2033719;29;20028;-69
2023/01/27 05:14:25;;;;;;;52.08;18.95;;;-0.10;99.90;;;;;;2033878;29;20043;-70
2023/01/27 05:15:25;;;;;;;53.20;19.42;;;-0.10;99.90;;;;;;2033810;29;20110;-72
2023/01/27 05:16:26;;;;;;;48.20;18.33;;;-0.10;99.90;;;;;;2044194;29;20082;-70
2023/01/27 05:17:31;;;;;;;47.63;18.92;;;-0.10;99.90;;;;;;2042357;29;20433;-70
2023/01/27 05:18:31;;;;;;;46.42;18.38;;;-0.10;99.90;;;;;;2042415;29;20035;-70
2023/01/27 05:19:33;;;;;;;49.00;18.05;;;0.00;99.90;;;;;;2042054;29;20051;-69
2023/01/27 05:20:33;;;;;;;45.78;18.02;;;0.00;99.90;;;;;;2041593;29;20566;-71
2023/01/27 05:21:34;;;;;;;48.42;18.27;;;0.00;99.90;;;;;;2044183;29;20031;-71
2023/01/27 05:22:35;;;;;;;41.97;17.35;;;0.00;99.90;;;;;;2043341;28;20063;-75
2023/01/27 05:23:35;;;;;;;48.70;18.65;;;0.00;99.90;;;;;;2041307;28;20390;-72
2023/01/27 05:24:40;;;;;;;51.13;19.98;;;0.10;99.90;;;;;;2042328;29;20478;-71
2023/01/27 05:25:42;;;;;;;48.53;18.30;;;0.10;99.90;;;;;;2033546;29;20047;-72
2023/01/27 05:26:43;;;;;;;44.65;18.13;;;0.10;99.90;;;;;;2033902;29;20028;-73
2023/01/27 05:27:44;;;;;;;45.75;18.27;;;0.00;99.90;;;;;;2027909;29;20132;-71
2023/01/27 05:28:46;;;;;;;45.17;17.70;;;0.10;99.90;;;;;;2030468;29;20444;-71
2023/01/27 05:29:47;;;;;;;46.72;17.88;;;0.10;99.90;;;;;;2046507;28;20137;-71
2023/01/27 05:30:48;;;;;;;49.13;18.83;;;0.10;99.90;;;;;;2046010;28;20035;-72
2023/01/27 05:31:48;;;;;;;50.38;18.75;;;0.10;99.90;;;;;;2035794;29;20035;-72
2023/01/27 05:32:49;;;;;;;51.05;18.75;;;0.10;99.90;;;;;;2035661;29;20040;-72
2023/01/27 05:33:52;;;;;;;49.53;18.50;;;0.10;99.90;;;;;;2033193;29;20027;-72
2023/01/27 05:34:53;;;;;;;45.47;17.40;;;0.10;99.90;;;;;;2033792;29;20191;-72
2023/01/27 05:35:53;;;;;;;45.45;17.73;;;0.10;99.90;;;;;;2043953;29;20118;-72
2023/01/27 05:36:54;;;;;;;47.15;17.88;;;0.00;99.90;;;;;;2041835;29;20061;-73
2023/01/27 05:37:55;;;;;;;44.72;17.90;;;0.00;99.90;;;;;;2042480;29;20082;-74
2023/01/27 05:38:57;;;;;;;49.85;18.45;;;0.10;99.90;;;;;;2034673;29;20665;-73
2023/01/27 05:39:58;;;;;;;47.70;18.02;;;0.10;99.90;;;;;;2033994;29;20478;-73
2023/01/27 05:41:01;;;;;;;49.17;18.70;;;0.10;99.90;;;;;;2040883;29;20039;-73
2023/01/27 05:42:01;;;;;;;56.05;19.95;;;0.10;99.90;;;;;;2033719;29;20447;-70
2023/01/27 05:43:02;;;;;;;52.28;19.00;;;0.10;99.90;;;;;;2039894;28;20023;-70
2023/01/27 05:44:04;;;;;;;53.55;19.98;;;0.10;99.90;;;;;;2041887;29;20035;-70
2023/01/27 05:45:05;;;;;;;56.03;20.25;;;0.00;99.90;;;;;;2033005;29;20035;-71
2023/01/27 05:46:12;;;;;;;51.13;19.58;;;0.10;99.90;;;;;;2042061;29;20411;-71
2023/01/27 05:47:12;;;;;;;52.33;18.98;;;0.00;99.90;;;;;;2042214;29;20039;-71
2023/01/27 05:48:13;;;;;;;48.85;18.55;;;0.10;99.90;;;;;;2035241;29;20062;-71
2023/01/27 05:49:13;;;;;;;50.47;18.65;;;0.10;99.90;;;;;;2033548;29;20051;-71
2023/01/27 05:50:14;;;;;;;46.25;18.13;;;0.10;99.90;;;;;;2027621;29;20370;-70
2023/01/27 05:51:17;;;;;;;46.88;17.73;;;0.00;99.90;;;;;;2033766;29;20038;-70
2023/01/27 05:52:17;;;;;;;49.58;17.88;;;0.10;99.90;;;;;;2033697;29;20032;-70
2023/01/27 05:53:18;;;;;;;47.40;17.20;;;0.00;99.90;;;;;;2035558;29;20034;-70